Time;durP1;ratioP1;P1;durP2;ratioP2;P2;SDS_P1;SDS_P2;PMS_P1;PMS_P2;Temp;Humidity;BMP_temperature;BMP_pressure;BME280_temperature;BME280_humidity;BME280_pressure;Samples;Min_cycle;Max_cycle;Signal;HPM_P1;HPM_P2
2023/02/08 03:40:41;;;;;;;10.00;6.13;;;;;;;2.78;57.27;102061.75;4738741;23;20112;-74
2023/02/08 03:43:25;;;;;;;12.85;6.95;;;;;;;2.74;56.58;102059.09;4992959;28;20108;-74
2023/02/08 03:45:59;;;;;;;;;;;;;;;2.77;56.04;102066.09;5024405;28;20049;-74
2023/02/08 03:48:28;;;;;;;10.75;6.00;;;;;;;2.80;57.51;102060.06;5030143;28;19925;-74
2023/02/08 03:50:57;;;;;;;10.13;6.65;;;;;;;2.78;56.86;102057.44;5029829;28;20050;-75
2023/02/08 03:53:26;;;;;;;13.30;8.02;;;;;;;2.77;57.28;102066.09;5030153;28;20103;-75
2023/02/08 03:55:59;;;;;;;13.80;7.90;;;;;;;2.76;56.66;102064.34;5030371;28;20046;-74
2023/02/08 03:58:33;;;;;;;10.30;6.80;;;;;;;2.77;56.21;102062.63;5030490;28;20459;-74
2023/02/08 04:01:11;;;;;;;13.65;7.65;;;;;;;2.77;56.52;102062.63;5030647;28;20053;-74
2023/02/08 04:03:39;;;;;;;11.35;6.80;;;;;;;2.79;57.23;102064.38;5021981;28;20144;-74
2023/02/08 04:06:06;;;;;;;11.60;7.03;;;;;;;2.79;57.38;102066.09;5030493;28;20405;-74
2023/02/08 04:08:32;;;;;;;9.85;6.53;;;;;;;2.80;57.22;102067.88;5030379;28;20096;-74
2023/02/08 04:10:59;;;;;;;11.10;6.80;;;;;;;2.79;57.18;102066.97;5030452;28;20137;-74
2023/02/08 04:13:25;;;;;;;10.18;7.07;;;;;;;2.79;57.19;102066.09;5030142;28;20057;-74
2023/02/08 04:15:52;;;;;;;11.23;7.28;;;;;;;2.78;57.24;102066.97;5030055;28;20112;-74
2023/02/08 04:18:19;;;;;;;11.85;7.50;;;;;;;2.78;57.40;102065.25;5029743;28;20568;-74
2023/02/08 04:20:45;;;;;;;12.43;8.15;;;;;;;2.77;57.32;102063.50;5030012;28;20053;-74
2023/02/08 04:23:12;;;;;;;14.48;8.02;;;;;;;2.77;57.25;102065.22;5030105;28;20050;-74
2023/02/08 04:25:38;;;;;;;12.23;7.60;;;;;;;2.77;57.22;102070.41;5030102;28;20133;-74
2023/02/08 04:28:05;;;;;;;10.50;7.22;;;;;;;2.77;57.21;102071.31;5030258;28;20080;-74
2023/02/08 04:30:32;;;;;;;18.20;7.90;;;;;;;2.77;56.99;102073.91;5029896;28;20143;-74
2023/02/08 04:32:58;;;;;;;11.60;7.40;;;;;;;2.76;56.77;102074.72;5029569;28;20068;-74
2023/02/08 04:35:25;;;;;;;12.45;6.93;;;;;;;2.76;57.17;102072.13;5029972;28;20103;-74
2023/02/08 04:37:52;;;;;;;17.13;8.40;;;;;;;2.74;57.23;102068.66;5030900;28;20123;-75
2023/02/08 04:40:18;;;;;;;11.50;7.45;;;;;;;2.74;56.80;102069.50;5033553;28;20064;-74
2023/02/08 04:42:45;;;;;;;12.48;7.60;;;;;;;2.73;56.65;102072.97;5033491;28;20148;-74
2023/02/08 04:45:12;;;;;;;11.35;7.43;;;;;;;2.71;56.34;102082.50;5033659;28;20054;-74
2023/02/08 04:47:38;;;;;;;11.45;7.68;;;;;;;2.71;56.42;102072.09;5033067;28;20517;-74
2023/02/08 04:50:05;;;;;;;12.88;7.35;;;;;;;2.70;56.97;102088.53;5033219;28;20549;-74
2023/02/08 04:52:32;;;;;;;13.45;7.80;;;;;;;2.69;56.47;102073.78;5033355;28;20053;-74
2023/02/08 04:54:58;;;;;;;14.57;7.97;;;;;;;2.69;56.84;102078.13;5033197;28;20136;-74
2023/02/08 04:57:25;;;;;;;13.70;7.57;;;;;;;2.67;56.73;102069.41;5033105;28;20141;-75
2023/02/08 04:59:51;;;;;;;11.52;7.28;;;;;;;2.66;57.42;102063.34;5033160;28;20144;-74
2023/02/08 05:02:18;;;;;;;12.05;7.15;;;;;;;2.66;56.70;102072.88;5032867;28;20218;-74
2023/02/08 05:04:45;;;;;;;12.68;7.50;;;;;;;2.64;56.53;102072.84;5033139;28;20302;-74
2023/02/08 05:07:12;;;;;;;11.63;7.53;;;;;;;2.62;57.11;102071.09;5032930;28;20113;-74
2023/02/08 05:09:38;;;;;;;13.52;8.38;;;;;;;2.60;56.49;102071.94;5032794;28;20509;-74
2023/02/08 05:12:05;;;;;;;11.52;7.38;;;;;;;2.59;56.71;102077.13;5032917;28;20085;-74
2023/02/08 05:14:31;;;;;;;11.30;7.25;;;;;;;2.59;57.25;102071.91;5032510;28;20541;-74
2023/02/08 05:16:58;;;;;;;12.23;7.88;;;;;;;2.58;57.25;102070.19;5032574;28;20486;-74
2023/02/08 05:19:25;;;;;;;13.85;7.57;;;;;;;2.57;56.95;102065.81;5032514;28;20104;-74
2023/02/08 05:21:52;;;;;;;11.38;7.53;;;;;;;2.57;56.91;102060.59;5032827;28;20085;-74
2023/02/08 05:24:18;;;;;;;12.82;7.38;;;;;;;2.56;56.94;102056.28;5032497;28;20497;-74
2023/02/08 05:26:45;;;;;;;14.15;7.88;;;;;;;2.55;57.33;102055.38;5032731;28;20069;-74
2023/02/08 05:29:12;;;;;;;11.95;7.25;;;;;;;2.55;57.50;102057.13;5032387;28;20140;-74
2023/02/08 05:31:38;;;;;;;10.95;7.25;;;;;;;2.55;57.42;102059.72;5007063;28;20095;-74
2023/02/08 05:34:05;;;;;;;14.10;6.72;;;;;;;2.53;56.85;102064.00;5032335;28;20096;-74
2023/02/08 05:36:32;;;;;;;14.23;6.60;;;;;;;2.54;57.29;102058.00;5032446;28;20128;-74
2023/02/08 05:38:59;;;;;;;11.35;7.13;;;;;;;2.52;56.94;102057.97;5031733;28;20401;-74
2023/02/08 05:41:25;;;;;;;9.68;6.40;;;;;;;2.51;57.37;102048.41;5013545;28;20662;-74
2023/02/08 05:43:52;;;;;;;11.93;7.13;;;;;;;2.51;57.54;102053.63;5010570;28;20504;-74
2023/02/08 05:46:18;;;;;;;11.43;6.65;;;;;;;2.51;57.70;102052.75;5006259;28;20122;-74
2023/02/08 05:48:45;;;;;;;11.00;6.55;;;;;;;2.52;57.51;102044.06;5012044;28;20124;-74
2023/02/08 05:51:12;;;;;;;10.98;6.78;;;;;;;2.52;57.19;102049.28;5012123;28;20050;-74
2023/02/08 05:53:39;;;;;;;10.30;6.57;;;;;;;2.53;57.41;102051.00;4995144;28;20145;-74
2023/02/08 05:56:05;;;;;;;10.45;6.38;;;;;;;2.51;57.06;102043.22;5012184;28;20263;-74
2023/02/08 05:58:33;;;;;;;11.02;7.25;;;;;;;2.51;57.15;102047.53;5012105;28;20062;-74
2023/02/08 06:00:59;;;;;;;12.77;6.53;;;;;;;2.50;56.90;102046.66;5012158;28;20498;-74
2023/02/08 06:03:26;;;;;;;8.88;5.78;;;;;;;2.48;56.74;102049.22;5012186;28;20066;-74
2023/02/08 06:05:53;;;;;;;9.35;6.45;;;;;;;2.48;56.81;102046.63;5012005;28;20132;-74
2023/02/08 06:08:19;;;;;;;9.77;5.90;;;;;;;2.47;56.84;102036.22;5011682;28;20572;-75
2023/02/08 06:10:56;;;;;;;11.27;6.10;;;;;;;2.46;56.55;102040.53;5011598;28;20052;-74
2023/02/08 06:13:28;;;;;;;11.98;5.82;;;;;;;2.44;56.16;102036.19;5011992;28;20598;-72
2023/02/08 06:16:08;;;;;;;7.93;5.10;;;;;;;2.43;57.20;102027.50;5007521;28;20375;-72
2023/02/08 06:18:35;;;;;;;8.80;5.72;;;;;;;2.42;56.19;102023.16;5010630;28;20429;-72
2023/02/08 06:21:02;;;;;;;8.90;5.32;;;;;;;2.42;56.64;102037.88;5010744;28;20470;-72
2023/02/08 06:23:29;;;;;;;7.95;5.45;;;;;;;2.40;56.12;102035.28;5011674;28;20062;-72
2023/02/08 06:25:55;;;;;;;10.90;5.55;;;;;;;2.38;56.58;102042.16;5011573;28;20466;-72
2023/02/08 06:28:22;;;;;;;9.32;5.65;;;;;;;2.37;55.84;102037.81;5011329;28;20048;-72
2023/02/08 06:30:50;;;;;;;9.98;5.72;;;;;;;2.36;55.86;102038.69;5010696;28;20045;-72
2023/02/08 06:33:17;;;;;;;8.18;5.32;;;;;;;2.36;56.03;102035.19;5011371;28;20149;-72
2023/02/08 06:35:50;;;;;;;8.48;5.50;;;;;;;2.33;55.64;102043.81;5010864;28;20089;-73
2023/02/08 06:38:17;;;;;;;9.90;5.78;;;;;;;2.35;55.61;102042.09;5011423;28;20140;-72
2023/02/08 06:40:46;;;;;;;9.13;5.78;;;;;;;2.33;55.56;102041.22;5010367;28;20476;-72
2023/02/08 06:43:13;;;;;;;9.38;6.43;;;;;;;2.32;55.85;102042.09;5011367;28;20050;-73
2023/02/08 06:45:41;;;;;;;10.07;5.63;;;;;;;2.30;55.79;102039.47;5011564;28;20045;-74
2023/02/08 06:48:08;;;;;;;9.73;6.35;;;;;;;2.30;56.36;102035.97;5011259;28;20409;-74
2023/02/08 06:50:36;;;;;;;9.68;6.00;;;;;;;2.28;55.88;102041.16;5011257;28;20144;-74
2023/02/08 06:53:03;;;;;;;8.88;5.47;;;;;;;2.28;56.26;102040.28;4993928;28;20050;-74
2023/02/08 06:55:30;;;;;;;10.05;6.13;;;;;;;2.28;55.83;102040.28;5010968;28;20536;-74
2023/02/08 06:57:56;;;;;;;10.32;5.80;;;;;;;2.28;56.15;102040.28;5010898;28;20081;-74
2023/02/08 07:00:23;;;;;;;10.50;6.25;;;;;;;2.29;55.86;102042.03;5010492;28;20137;-73
2023/02/08 07:02:51;;;;;;;10.68;6.35;;;;;;;2.28;55.92;102050.69;5011045;28;20517;-74
2023/02/08 07:05:18;;;;;;;10.07;6.05;;;;;;;2.27;55.59;102049.81;5011254;28;20084;-74
2023/02/08 07:07:44;;;;;;;9.15;5.63;;;;;;;2.25;55.52;102048.91;5010969;28;20054;-74
2023/02/08 07:10:11;;;;;;;9.13;5.93;;;;;;;2.22;55.78;102049.72;5011138;28;20054;-74
2023/02/08 07:12:37;;;;;;;10.98;6.00;;;;;;;2.21;55.31;102049.72;5010884;28;20049;-74
2023/02/08 07:15:04;;;;;;;9.18;5.53;;;;;;;2.20;55.47;102051.44;5010796;28;20197;-74
2023/02/08 07:17:31;;;;;;;10.63;5.32;;;;;;;2.19;55.49;102052.28;5010678;28;20140;-74
2023/02/08 07:19:58;;;;;;;11.00;5.85;;;;;;;2.20;56.27;102054.03;5011093;28;20149;-74
2023/02/08 07:22:24;;;;;;;10.40;5.32;;;;;;;2.20;55.60;102048.84;5011014;28;20054;-74
2023/02/08 07:24:51;;;;;;;6.78;4.72;;;;;;;2.22;56.11;102051.47;5010797;28;20053;-74
2023/02/08 07:27:17;;;;;;;9.05;5.68;;;;;;;2.25;56.13;102051.53;4993300;28;20382;-74
2023/02/08 07:29:44;;;;;;;8.32;4.80;;;;;;;2.29;56.13;102048.13;5010786;28;20096;-74
2023/02/08 07:32:11;;;;;;;13.93;5.28;;;;;;;2.33;56.19;102052.47;5010782;28;20073;-74
2023/02/08 07:34:39;;;;;;;7.30;4.75;;;;;;;2.37;56.23;102050.81;5010904;28;20127;-74
2023/02/08 07:37:07;;;;;;;7.75;5.30;;;;;;;2.41;56.05;102052.63;5010755;28;20053;-74
2023/02/08 07:39:33;;;;;;;7.60;4.68;;;;;;;2.46;55.85;102050.94;5011017;28;20149;-74
2023/02/08 07:42:00;;;;;;;7.30;4.97;;;;;;;2.50;56.17;102048.41;5010686;28;20050;-74
2023/02/08 07:44:26;;;;;;;9.60;5.35;;;;;;;2.53;56.10;102051.00;4993137;28;20502;-74
2023/02/08 07:46:53;;;;;;;10.88;5.93;;;;;;;2.56;56.40;102048.47;5010618;28;20140;-74
2023/02/08 07:49:20;;;;;;;9.68;6.00;;;;;;;2.58;56.58;102044.19;5010575;28;20054;-74
2023/02/08 07:51:47;;;;;;;9.80;5.45;;;;;;;2.60;56.00;102043.34;5010334;28;20469;-74
2023/02/08 07:54:13;;;;;;;10.02;5.80;;;;;;;2.62;55.92;102042.47;5010743;28;20141;-74
2023/02/08 07:56:40;;;;;;;8.73;5.63;;;;;;;2.64;55.72;102040.75;5010657;28;20097;-74
2023/02/08 07:59:07;;;;;;;8.50;4.75;;;;;;;2.65;55.92;102040.78;5010296;28;20064;-74
2023/02/08 08:01:34;;;;;;;9.35;5.43;;;;;;;2.66;56.28;102042.56;5010666;28;20108;-74
2023/02/08 08:04:01;;;;;;;10.23;5.28;;;;;;;2.69;56.51;102037.38;5010651;28;20050;-74
2023/02/08 08:06:27;;;;;;;9.32;5.45;;;;;;;2.70;55.82;102036.50;5010201;28;20045;-74
2023/02/08 08:08:54;;;;;;;7.55;5.03;;;;;;;2.72;56.26;102034.81;5010327;28;20072;-74
2023/02/08 08:11:21;;;;;;;7.43;4.80;;;;;;;2.74;56.14;102037.44;5010686;28;20128;-74
2023/02/08 08:13:48;;;;;;;9.30;4.43;;;;;;;2.77;56.07;102039.22;5013864;28;20053;-74
2023/02/08 08:16:15;;;;;;;7.97;4.70;;;;;;;2.79;56.06;102047.88;5013966;28;20089;-74
2023/02/08 08:18:42;;;;;;;7.68;4.43;;;;;;;2.81;56.59;102047.03;5013975;28;20049;-74
2023/02/08 08:21:09;;;;;;;7.25;4.93;;;;;;;2.86;56.55;102044.53;5014367;28;20080;-74
2023/02/08 08:23:36;;;;;;;7.03;4.57;;;;;;;2.88;55.80;102041.94;4996566;28;20050;-74
2023/02/08 08:26:07;;;;;;;8.02;5.47;;;;;;;2.90;55.55;102030.69;5013914;28;20052;-74
2023/02/08 08:28:34;;;;;;;6.60;4.50;;;;;;;2.95;56.02;102030.75;5013932;28;20054;-74
2023/02/08 08:31:01;;;;;;;7.70;4.65;;;;;;;2.98;56.27;102018.66;5013922;28;20049;-74
2023/02/08 08:33:28;;;;;;;8.52;5.00;;;;;;;3.04;55.81;102022.16;5013906;28;20046;-74
2023/02/08 08:35:54;;;;;;;8.05;4.90;;;;;;;3.08;55.86;102022.25;4996304;28;20060;-74
2023/02/08 08:38:21;;;;;;;7.95;4.47;;;;;;;3.12;56.09;102021.41;5013732;28;20054;-74
2023/02/08 08:40:48;;;;;;;7.32;4.63;;;;;;;3.18;56.16;102019.72;5014070;28;20053;-74
2023/02/08 08:45:42;;;;;;;6.88;4.38;;;;;;;3.24;55.81;102018.06;5022714;22;20054;-78
2023/02/08 08:48:09;;;;;;;7.57;4.28;;;;;;;3.29;55.67;102012.03;4992945;28;20042;-78
2023/02/08 08:50:36;;;;;;;9.20;4.97;;;;;;;3.33;55.92;102012.06;4993468;28;20053;-79
2023/02/08 08:53:02;;;;;;;7.50;4.47;;;;;;;3.38;55.57;102012.13;4993150;28;20617;-77
2023/02/08 08:55:29;;;;;;;9.50;5.22;;;;;;;3.41;55.67;102019.97;4993189;28;20046;-78
2023/02/08 08:57:55;;;;;;;8.15;4.55;;;;;;;3.45;55.79;102024.34;4993098;28;20046;-78
2023/02/08 09:00:22;;;;;;;7.15;4.50;;;;;;;3.50;55.37;102022.66;4993676;28;20058;-79
2023/02/08 09:02:48;;;;;;;9.07;4.45;;;;;;;3.55;55.39;102029.63;4993606;28;20080;-79
2023/02/08 09:05:15;;;;;;;8.25;4.70;;;;;;;3.58;55.58;102030.53;4993396;28;20054;-78
2023/02/08 09:07:41;;;;;;;7.03;4.18;;;;;;;3.63;55.05;102025.38;4993514;28;20163;-78
2023/02/08 09:10:08;;;;;;;8.20;4.78;;;;;;;3.68;54.80;102021.06;4993591;28;20137;-79
2023/02/08 09:12:35;;;;;;;6.32;4.32;;;;;;;3.72;55.00;102022.84;4993663;28;20051;-79
2023/02/08 09:15:02;;;;;;;7.60;4.25;;;;;;;3.77;54.64;102021.13;4993881;28;20090;-78
2023/02/08 09:17:29;;;;;;;7.50;4.65;;;;;;;3.83;54.63;102022.94;4992246;28;20108;-78
2023/02/08 09:19:55;;;;;;;9.85;4.38;;;;;;;3.88;54.63;102029.03;4993222;28;20047;-79
2023/02/08 09:22:22;;;;;;;7.55;4.80;;;;;;;3.94;54.72;102022.13;4993379;28;20120;-78
2023/02/08 09:24:48;;;;;;;7.22;4.85;;;;;;;3.99;54.67;102023.03;4992498;28;20085;-78
2023/02/08 09:27:17;;;;;;;7.38;4.32;;;;;;;4.05;54.63;102025.69;4992985;28;20101;-78
2023/02/08 09:29:44;;;;;;;6.68;4.28;;;;;;;4.11;54.46;102017.03;4991962;28;20058;-78
2023/02/08 09:32:10;;;;;;;6.68;4.22;;;;;;;4.16;54.56;102024.00;4993121;28;20046;-78
2023/02/08 09:34:37;;;;;;;7.75;4.85;;;;;;;4.20;53.93;102027.53;4993527;28;20046;-78
2023/02/08 09:37:05;;;;;;;7.75;4.57;;;;;;;4.26;54.34;102029.31;4992731;28;20050;-78
2023/02/08 09:39:32;;;;;;;8.50;4.75;;;;;;;4.32;54.30;102025.84;4992870;28;20522;-79
2023/02/08 09:42:20;;;;;;;10.00;4.82;;;;;;;4.34;52.66;102029.34;4993084;28;20092;-78
2023/02/08 09:44:58;;;;;;;6.55;4.65;;;;;;;4.43;54.15;102037.22;4992798;28;20052;-78
2023/02/08 09:47:33;;;;;;;9.93;4.50;;;;;;;4.47;52.82;102045.91;4992859;28;20494;-79
2023/02/08 09:50:10;;;;;;;5.57;4.18;;;;;;;4.53;53.17;102043.34;4992679;28;20053;-78
2023/02/08 09:52:49;;;;;;;13.13;4.82;;;;;;;4.59;53.93;102040.78;4992831;28;20051;-79
2023/02/08 09:55:15;;;;;;;9.98;5.07;;;;;;;4.65;54.54;102038.22;4992552;28;20152;-78
2023/02/08 09:57:44;;;;;;;6.32;4.22;;;;;;;4.72;54.41;102043.44;4992416;28;20058;-78
2023/02/08 10:00:24;;;;;;;7.53;5.30;;;;;;;4.76;52.13;102046.09;4992390;28;20054;-80
2023/02/08 10:02:53;;;;;;;7.53;4.53;;;;;;;4.85;53.74;102044.38;4992744;28;20058;-78
2023/02/08 10:05:28;;;;;;;7.32;4.30;;;;;;;4.92;53.32;102040.91;4992101;28;20057;-78
2023/02/08 10:07:57;;;;;;;8.75;4.35;;;;;;;5.01;53.92;102040.09;4992357;28;20054;-79
2023/02/08 10:10:45;;;;;;;9.48;4.78;;;;;;;5.05;51.51;102042.69;4990917;28;20101;-78
2023/02/08 10:13:32;;;;;;;7.93;5.10;;;;;;;5.15;51.08;102037.50;4992450;28;20043;-79
2023/02/08 10:16:13;;;;;;;11.18;4.55;;;;;;;5.26;53.20;102035.78;4991122;28;20055;-79
2023/02/08 10:19:09;;;;;;;11.40;5.45;;;;;;;5.33;50.91;102041.88;4992469;28;20062;-79
2023/02/08 10:21:42;;;;;;;10.43;4.70;;;;;;;5.45;53.66;102041.91;4992137;28;20081;-78
2023/02/08 10:24:36;;;;;;;12.50;5.60;;;;;;;5.52;51.75;102040.19;4991267;28;20054;-78
2023/02/08 10:27:16;;;;;;;8.68;5.15;;;;;;;5.63;51.53;102037.59;4991702;28;20046;-78
2023/02/08 10:29:51;;;;;;;6.85;5.07;;;;;;;5.74;51.85;102034.97;4992067;28;20149;-79
2023/02/08 10:32:23;;;;;;;8.95;5.60;;;;;;;5.85;53.64;102035.84;4992067;28;20165;-78
2023/02/08 10:34:58;;;;;;;7.50;5.18;;;;;;;5.93;51.83;102033.22;4991351;28;20658;-79
2023/02/08 10:37:35;;;;;;;8.90;5.63;;;;;;;6.05;51.89;102032.38;4991461;28;20442;-78
2023/02/08 10:40:17;;;;;;;7.35;4.95;;;;;;;6.16;51.47;102028.88;4990467;28;20062;-80
2023/02/08 10:42:48;;;;;;;9.02;5.32;;;;;;;6.30;51.79;102021.88;4991646;28;20137;-78
2023/02/08 10:45:28;;;;;;;7.88;4.70;;;;;;;6.42;50.94;102020.09;4993645;28;20494;-79
2023/02/08 10:47:59;;;;;;;7.40;4.63;;;;;;;6.57;52.42;102020.03;5011305;28;20046;-80
2023/02/08 10:50:37;;;;;;;8.07;4.70;;;;;;;6.70;52.04;102017.38;5011248;28;20046;-78
2023/02/08 10:53:05;;;;;;;8.38;4.25;;;;;;;6.86;52.77;102019.06;5011135;28;20108;-79
2023/02/08 10:55:37;;;;;;;6.40;4.25;;;;;;;6.99;51.39;102008.53;5009755;28;20054;-78
2023/02/08 10:58:05;;;;;;;7.00;4.63;;;;;;;7.15;52.04;102010.16;5011216;28;20050;-79
2023/02/08 11:00:35;;;;;;;6.38;4.10;;;;;;;7.28;51.49;102000.47;5011367;28;20057;-78
2023/02/08 11:03:19;;;;;;;7.00;4.15;;;;;;;7.41;49.35;102000.38;5011072;28;20540;-78
2023/02/08 11:05:46;;;;;;;6.53;4.15;;;;;;;7.60;51.76;102000.25;5011253;28;20050;-79
2023/02/08 11:08:21;;;;;;;7.25;4.43;;;;;;;7.72;50.73;101994.00;5009572;28;20057;-79
2023/02/08 11:11:03;;;;;;;6.20;4.18;;;;;;;7.86;49.27;101993.91;5011164;28;20050;-79
2023/02/08 11:13:42;;;;;;;5.35;3.75;;;;;;;8.00;49.04;101989.38;5010782;28;20050;-78
2023/02/08 11:16:11;;;;;;;5.85;3.95;;;;;;;8.19;50.77;101995.31;5011034;28;20057;-78
2023/02/08 11:18:45;;;;;;;6.28;4.45;;;;;;;8.39;51.41;101996.84;5010862;28;20082;-77
2023/02/08 11:21:22;;;;;;;6.43;4.00;;;;;;;8.64;49.13;101995.72;5009559;28;20064;-78
2023/02/08 11:23:54;;;;;;;6.28;4.15;;;;;;;8.96;50.64;101995.28;5010852;28;20136;-79
2023/02/08 11:26:29;;;;;;;6.82;4.28;;;;;;;9.33;49.98;101996.50;5010799;28;20080;-77
2023/02/08 11:29:16;;;;;;;6.38;4.25;;;;;;;9.80;49.22;101992.22;5010990;28;20060;-78
2023/02/08 11:32:23;;;;;;;6.43;4.18;;;;;;;10.26;48.30;101993.13;5010759;28;20049;-79
2023/02/08 11:34:50;;;;;;;6.18;4.03;;;;;;;10.71;51.29;101983.47;5009908;28;20058;-79
2023/02/08 11:37:22;;;;;;;7.18;4.50;;;;;;;11.00;48.96;101974.94;5010668;28;20108;-78
2023/02/08 11:39:53;;;;;;;6.60;4.07;;;;;;;11.31;48.72;101989.16;5010598;28;20061;-78
2023/02/08 11:42:40;;;;;;;7.07;3.92;;;;;;;11.63;48.87;101982.22;5010789;28;20410;-78
2023/02/08 11:45:18;;;;;;;6.90;4.03;;;;;;;12.07;51.93;101981.97;5010703;28;20049;-78
2023/02/08 11:47:47;;;;;;;6.65;3.53;;;;;;;12.64;51.68;101973.34;5013241;28;20054;-79
2023/02/08 11:50:24;;;;;;;4.97;3.63;;;;;;;13.29;49.11;101979.25;5014735;28;20085;-79
2023/02/08 11:52:56;;;;;;;4.55;3.58;;;;;;;14.05;49.85;101977.59;5014389;28;20060;-79
2023/02/08 11:55:26;;;;;;;4.95;3.90;;;;;;;14.86;51.49;101979.94;5014526;28;20115;-80
2023/02/08 11:57:57;;;;;;;4.82;3.60;;;;;;;15.68;48.67;101969.53;5014484;28;20085;-79
2023/02/08 12:00:27;;;;;;;5.40;4.32;;;;;;;16.50;48.68;101960.63;5014539;28;20053;-79
2023/02/08 12:02:59;;;;;;;4.95;3.80;;;;;;;17.29;44.29;101960.44;5014356;28;20563;-79
2023/02/08 12:05:43;;;;;;;4.53;3.95;;;;;;;18.07;43.02;101946.69;5014395;28;20410;-79
2023/02/08 12:08:29;;;;;;;4.85;3.95;;;;;;;18.82;41.88;101945.28;5014227;28;20062;-79
2023/02/08 12:11:10;;;;;;;5.85;3.80;;;;;;;19.54;41.84;101943.84;5014290;28;20092;-79
2023/02/08 12:13:58;;;;;;;3.50;2.97;;;;;;;20.15;40.90;101946.41;5014131;28;20078;-79
2023/02/08 12:16:35;;;;;;;6.22;3.30;;;;;;;20.71;38.50;101939.34;5014157;28;20056;-79
2023/02/08 12:19:40;;;;;;;3.28;2.55;;;;;;;21.22;38.40;101941.34;5014068;28;20093;-79
2023/02/08 12:22:15;;;;;;;3.28;2.50;;;;;;;21.73;36.62;101942.41;4992869;28;20062;-81
2023/02/08 12:25:20;;;;;;;3.42;2.63;;;;;;;22.07;37.65;101930.25;5014008;28;20057;-80
2023/02/08 12:28:00;;;;;;;3.60;2.47;;;;;;;22.46;34.48;101927.50;5012507;28;20132;-79
2023/02/08 12:30:33;;;;;;;3.25;2.35;;;;;;;22.71;36.42;101918.50;5012411;28;20061;-79
2023/02/08 12:33:05;;;;;;;;;;;;;;;22.88;38.72;101922.59;5013030;28;20111;-79
2023/02/08 12:35:44;;;;;;;2.83;2.10;;;;;;;23.17;35.99;101918.69;5012232;28;20293;-79
2023/02/08 12:41:54;;;;;;;;;;;;;;;23.73;40.08;101902.81;4972247;28;20523;-79
2023/02/08 12:44:33;;;;;;;6.28;1.83;;;;;;;24.07;38.27;101889.38;4971945;28;20549;-79
2023/02/08 12:47:27;;;;;;;2.00;1.80;;;;;;;24.25;33.82;101887.03;4986310;28;20050;-79
2023/02/08 12:49:59;;;;;;;2.20;2.00;;;;;;;24.52;33.21;101884.91;5013617;28;20053;-79
2023/02/08 12:52:32;;;;;;;;;;;;;;;24.68;37.75;101881.78;5013845;28;20057;-79
2023/02/08 12:55:05;;;;;;;1.95;1.75;;;;;;;24.91;32.67;101873.63;5013325;28;19922;-79
2023/02/08 12:57:32;;;;;;;;;;;;;;;24.94;36.46;101867.97;5012029;28;20050;-79
2023/02/08 13:00:04;;;;;;;1.75;1.60;;;;;;;24.96;32.27;101868.69;5012648;28;19922;-80
2023/02/08 13:02:44;;;;;;;2.10;1.90;;;;;;;24.78;32.75;101860.31;5013520;28;20049;-79
2023/02/08 13:05:20;;;;;;;1.80;1.45;;;;;;;24.37;28.67;101849.34;5011694;28;20058;-80
2023/02/08 13:07:50;;;;;;;2.28;1.50;;;;;;;23.97;29.38;101850.72;5008368;28;20107;-79
2023/02/08 13:10:30;;;;;;;2.00;1.80;;;;;;;23.40;26.06;101846.22;5015564;28;20056;-79
2023/02/08 13:13:18;;;;;;;1.80;1.50;;;;;;;22.71;28.19;101846.03;5032671;28;20045;-79
2023/02/08 13:15:47;;;;;;;2.17;1.98;;;;;;;22.16;28.78;101837.56;5015080;28;20055;-79
2023/02/08 13:18:29;;;;;;;1.60;1.50;;;;;;;21.37;27.45;101831.44;5032633;28;20104;-79
2023/02/08 13:21:00;;;;;;;1.52;1.42;;;;;;;20.80;26.77;101830.81;5032883;28;20063;-79
2023/02/08 13:23:36;;;;;;;2.80;1.60;;;;;;;20.19;27.10;101829.44;5033094;28;20469;-79
2023/02/08 13:26:26;;;;;;;2.53;1.98;;;;;;;19.63;27.51;101835.59;5032409;28;20053;-80
2023/02/08 13:28:55;;;;;;;1.90;1.50;;;;;;;19.19;28.27;101824.00;5014914;28;20131;-79
2023/02/08 13:31:30;;;;;;;3.30;2.05;;;;;;;18.71;27.59;101827.66;5032658;28;20095;-80
2023/02/08 13:34:02;;;;;;;2.50;1.67;;;;;;;18.26;27.54;101824.88;5032682;28;20080;-78
2023/02/08 13:36:35;;;;;;;4.75;1.92;;;;;;;17.82;27.93;101820.13;5032443;28;20437;-79
2023/02/08 13:39:06;;;;;;;1.90;1.80;;;;;;;17.39;27.06;101814.44;5032409;28;20053;-80
2023/02/08 13:41:34;;;;;;;2.60;1.83;;;;;;;17.02;28.87;101815.41;5014665;28;20061;-79
2023/02/08 13:44:06;;;;;;;3.78;1.63;;;;;;;16.75;29.53;101810.50;5014783;28;20050;-78
2023/02/08 13:46:47;;;;;;;3.20;1.95;;;;;;;16.48;28.75;101810.97;5032290;28;20065;-80
2023/02/08 13:49:39;;;;;;;2.20;1.83;;;;;;;16.34;29.45;101805.47;5032262;28;20045;-79
2023/02/08 13:52:30;;;;;;;2.15;1.77;;;;;;;16.26;29.56;101806.69;5032250;28;20132;-78
2023/02/08 13:55:27;;;;;;;4.63;2.20;;;;;;;16.21;29.56;101794.56;5032057;28;20060;-79
2023/02/08 13:57:56;;;;;;;1.80;1.63;;;;;;;16.25;31.03;101797.00;5031706;28;20111;-78
2023/02/08 14:00:22;;;;;;;2.70;2.00;;;;;;;16.26;31.14;101784.59;5032337;28;20441;-79
2023/02/08 14:03:13;;;;;;;2.05;1.85;;;;;;;16.22;28.39;101773.22;5014379;28;20164;-80
2023/02/08 14:06:00;;;;;;;2.63;2.00;;;;;;;16.30;31.80;101772.88;5031845;28;20095;-80
2023/02/08 14:08:38;;;;;;;2.78;2.20;;;;;;;16.37;30.23;101765.47;5031635;28;20096;-79
2023/02/08 14:11:23;;;;;;;2.47;2.08;;;;;;;16.54;30.91;101767.25;5031825;28;20052;-78
2023/02/08 14:14:14;;;;;;;2.75;2.20;;;;;;;16.77;33.63;101754.59;5031499;28;20072;-79
2023/02/08 14:17:05;;;;;;;2.65;2.08;;;;;;;17.01;32.63;101748.97;5031338;28;20049;-79
2023/02/08 14:19:41;;;;;;;3.08;2.10;;;;;;;17.27;31.38;101747.59;5031570;28;20099;-79
2023/02/08 14:22:11;;;;;;;3.80;2.30;;;;;;;17.57;32.11;101741.56;5031700;28;20133;-79
2023/02/08 14:24:46;;;;;;;6.72;2.30;;;;;;;17.90;32.31;101738.91;5031472;28;20042;-79
2023/02/08 14:27:29;;;;;;;4.00;2.40;;;;;;;18.33;32.19;101743.63;5031204;28;20057;-79
2023/02/08 14:29:58;;;;;;;3.25;2.42;;;;;;;18.86;33.35;101743.19;5031733;28;20052;-79
2023/02/08 14:32:28;;;;;;;2.70;2.13;;;;;;;19.42;33.63;101729.13;5031279;28;20436;-79
2023/02/08 14:35:06;;;;;;;3.53;2.35;;;;;;;20.02;32.23;101734.28;5013525;28;20049;-79
2023/02/08 14:37:34;;;;;;;2.10;1.90;;;;;;;20.65;33.50;101728.34;5031093;28;20046;-79
2023/02/08 14:40:19;;;;;;;2.70;2.20;;;;;;;21.24;30.97;101720.78;5031404;28;20054;-80
2023/02/08 14:43:05;;;;;;;3.53;2.40;;;;;;;21.80;30.52;101717.69;5031050;28;20539;-79
2023/02/08 14:48:08;;;;;;;3.90;2.58;;;;;;;22.67;30.38;101718.38;5029282;28;20599;-77
2023/02/08 14:50:40;;;;;;;2.85;2.42;;;;;;;23.03;30.30;101712.94;5031230;28;20136;-77
2023/02/08 14:53:12;;;;;;;4.25;2.30;;;;;;;23.39;29.26;101711.00;5030976;28;20583;-77
2023/02/08 14:55:58;;;;;;;3.63;2.58;;;;;;;23.68;30.00;101707.78;5030879;28;20124;-78
2023/02/08 14:58:28;;;;;;;2.53;2.00;;;;;;;24.00;28.20;101710.63;5030773;28;20055;-78
2023/02/08 15:00:58;;;;;;;2.90;2.40;;;;;;;24.16;28.22;101707.50;5031214;28;20076;-78
2023/02/08 15:03:29;;;;;;;2.78;1.80;;;;;;;24.15;27.38;101711.19;5031098;28;20084;-77
2023/02/08 15:06:33;;;;;;;2.20;2.00;;;;;;;24.06;26.03;101715.47;5031074;28;20448;-77
2023/02/08 15:09:00;;;;;;;2.47;1.83;;;;;;;23.99;27.58;101711.59;4968111;28;20762;-77
2023/02/08 15:11:31;;;;;;;2.25;1.77;;;;;;;23.86;25.18;101714.44;5017573;28;20217;-77
2023/02/08 15:14:00;;;;;;;1.95;1.70;;;;;;;23.64;25.86;101706.31;5012621;28;20140;-77
2023/02/08 15:16:42;;;;;;;2.20;1.88;;;;;;;23.21;24.43;101704.41;5029707;28;20398;-77
2023/02/08 15:19:37;;;;;;;3.83;1.85;;;;;;;22.60;24.77;101709.09;5030783;28;20049;-77
2023/02/08 15:22:17;;;;;;;2.05;1.83;;;;;;;21.70;24.84;101698.69;5030091;28;20092;-77
2023/02/08 15:24:52;;;;;;;3.42;2.70;;;;;;;20.85;24.76;101691.34;5030738;28;20046;-77
2023/02/08 15:27:23;;;;;;;3.42;2.70;;;;;;;19.99;25.88;101700.59;5030365;28;20104;-76
2023/02/08 15:29:50;;;;;;;3.13;2.72;;;;;;;19.06;26.61;101695.78;5030450;28;20049;-78
2023/02/08 15:32:23;;;;;;;4.95;3.17;;;;;;;18.12;26.76;101705.75;5030661;28;20124;-79
2023/02/08 15:34:52;;;;;;;;;;;;;;;17.32;29.10;101697.63;5030926;28;20053;-78
2023/02/08 15:37:19;;;;;;;4.80;3.63;;;;;;;16.57;29.04;101694.47;5030371;28;19983;-78
2023/02/08 15:39:52;;;;;;;6.03;4.07;;;;;;;15.73;28.89;101702.03;5030197;28;20053;-79